Main page
METAR-TAF:

METAR-TAF

Airports :

Hafar Al-Batin, Saudi Arabia

King Khalid Military City

latitude: 27-54N, longitude: 045-32E, elevation: 413 m

Current weather observation

The report was made 8 hours and 52 minutes ago, at 20:00 UTC
Wind 4 kt from the North/Northeast
Temperature 39°C
Humidity 18%
Pressure 1006 hPa
Visibility 10 km or more
no clouds below 1500 m and no cumulonimbus

METAR: OEKK 232000Z 02004KT CAVOK 39/10 Q1006 NOSIG

Time: 07:52 (04:52 UTC)

Forecast

The report was made 25 hours and 52 minutes ago, at 03:00 UTC
Forecast valid from 23 at 06 UTC to 23 at 20 UTC
Wind 10 kt from the North with gusts up to 20 kt
Visibility: 7000 m
Clear sky
Temporary
from 23 at 06 UTC to 23 at 16 UTC
Visibility: 3000 m
widespread dust, Blowing dust
Probability 30% :
Temporary
from 23 at 10 UTC to 23 at 16 UTC
Visibility: 1500 m
Blowing sand

TAF: OEKK 230300Z 2306/2320 36010G20KT 7000 SKC TEMPO 2306/2316 3000 DU BLDU PROB30 TEMPO 2310/2316 1500 BLSA

Weather observations and forecasts of more than 4000 airports (METAR and TAF reports).

The available stations are represented by yellow and red dots on the map.

Hover mouse over dot to see the name of the station.

Then click to see weather observations and forecasts.

To change the map : click on the green buttons with a black cross to zoom in, on the green button with a dash to zoom out, or on the green arrows for adjacent maps.


METAR-TAF: